Portada
METAR-TAF:

METAR-TAF

Aeroports :

Brooks Field

Marshall, Michigan, Estats Units d'Amèrica

latitud: 42-15-04N, longitud: 084-57-20W, altitud: 287 m

Observació

L'informe es va fer fa 21 minuts, a les 01:36 UTC
Vent calma
Temperatura 20°C
Humitat 100%
Pressió 1015 hPa
Visibilitat: 16.1 km
Cel cobert a una alçada de 8000 ft

METAR: KRMY 280136Z AUTO 00000KT 10SM OVC080 20/20 A2997 RMK AO2 T02030197

Hora: 21:57 (01:57 UTC)


TAF: manca

Observacions i pronòstics meteorològics de més de 4000 aeroports (METAR i TAF).

Les estacions disponibles són els punts grocs i vermells al mapa.

Posi el ratolí al punt desitjat per veure el nom de l'estació.

Feu clic per veure les observacions i els pronòstics meteorològics.

Per canviar el mapa: feu clic els botons verds amb una creu de color negre per apropar; al botó verd amb un guió per allunyar la imatge; o en les fletxes verdes per a mapes adjacents.


METAR-TAF: